Time;durP1;ratioP1;P1;durP2;ratioP2;P2;SDS_P1;SDS_P2;PMS_P1;PMS_P2;Temp;Humidity;BMP_temperature;BMP_pressure;BME280_temperature;BME280_humidity;BME280_pressure;Samples;Min_cycle;Max_cycle;Signal;HPM_P1;HPM_P2
2024/01/06 00:01:29;;;;;;;13.43;12.02;;;3.80;99.90;;;;;;5013686;28;20053;-72
2024/01/06 00:03:55;;;;;;;14.98;12.93;;;3.80;99.90;;;;;;5011711;28;20047;-72
2024/01/06 00:06:21;;;;;;;13.75;12.27;;;3.80;99.90;;;;;;5017370;28;20115;-72
2024/01/06 00:08:53;;;;;;;14.30;12.70;;;3.80;99.90;;;;;;5010155;28;20519;-73
2024/01/06 00:11:19;;;;;;;13.77;12.38;;;3.70;99.90;;;;;;5015898;28;20041;-72
2024/01/06 00:13:45;;;;;;;16.55;12.88;;;3.70;99.90;;;;;;5008193;28;20045;-73
2024/01/06 00:16:11;;;;;;;15.40;13.20;;;3.70;99.90;;;;;;5015397;28;20044;-72
2024/01/06 00:18:36;;;;;;;17.08;13.98;;;3.60;99.90;;;;;;5013732;28;20764;-73
2024/01/06 00:21:02;;;;;;;15.85;14.15;;;3.60;99.90;;;;;;5014423;28;20136;-72
2024/01/06 00:23:28;;;;;;;14.98;13.38;;;3.60;99.90;;;;;;5013993;28;20180;-73
2024/01/06 00:25:53;;;;;;;18.50;15.73;;;3.60;99.90;;;;;;5014625;28;20045;-73
2024/01/06 00:28:19;;;;;;;16.92;15.20;;;3.60;99.90;;;;;;5016435;28;20504;-73
2024/01/06 00:30:45;;;;;;;17.02;14.77;;;3.60;99.90;;;;;;5018171;28;20631;-73
2024/01/06 00:33:11;;;;;;;18.52;15.45;;;3.60;99.90;;;;;;5016979;28;20049;-73
2024/01/06 00:35:37;;;;;;;16.88;14.93;;;3.60;99.90;;;;;;5017656;28;20042;-73
2024/01/06 00:38:03;;;;;;;16.85;15.05;;;3.60;99.90;;;;;;5019405;28;20045;-72
2024/01/06 00:40:28;;;;;;;16.98;15.02;;;3.60;99.90;;;;;;5017948;28;20419;-73
2024/01/06 00:42:54;;;;;;;17.05;15.25;;;3.50;99.90;;;;;;5018564;28;20108;-73
2024/01/06 00:45:20;;;;;;;16.58;14.77;;;3.50;99.90;;;;;;5016584;28;20146;-73
2024/01/06 00:47:46;;;;;;;15.57;13.85;;;3.50;99.90;;;;;;5017213;28;20042;-73
2024/01/06 00:50:12;;;;;;;16.65;14.80;;;3.50;99.90;;;;;;5015817;28;20061;-72
2024/01/06 00:52:37;;;;;;;17.67;15.73;;;3.50;99.90;;;;;;5019354;28;20471;-73
2024/01/06 00:55:03;;;;;;;18.35;16.17;;;3.50;99.90;;;;;;5014960;28;20124;-73
2024/01/06 00:57:29;;;;;;;18.27;16.30;;;3.50;99.90;;;;;;5020577;28;20046;-73
2024/01/06 00:59:54;;;;;;;21.27;17.13;;;3.40;99.90;;;;;;5013849;28;20389;-73
2024/01/06 01:02:20;;;;;;;20.67;17.63;;;3.50;99.90;;;;;;5015879;28;20045;-72
2024/01/06 01:04:46;;;;;;;23.42;18.83;;;3.50;99.90;;;;;;5015698;28;20057;-72
2024/01/06 01:07:12;;;;;;;24.20;19.67;;;3.40;99.90;;;;;;5020089;28;20037;-73
2024/01/06 01:09:38;;;;;;;23.55;19.67;;;3.50;99.90;;;;;;5013408;28;20053;-73
2024/01/06 01:12:04;;;;;;;25.40;20.27;;;3.40;99.90;;;;;;5018783;28;20037;-72
2024/01/06 01:14:29;;;;;;;23.23;20.25;;;3.50;99.90;;;;;;5015427;28;20120;-73
2024/01/06 01:16:55;;;;;;;27.40;21.85;;;3.40;99.90;;;;;;5019543;28;20045;-73
2024/01/06 01:19:20;;;;;;;23.92;20.60;;;3.40;99.90;;;;;;5016523;28;20057;-73
2024/01/06 01:21:46;;;;;;;26.00;21.38;;;3.50;99.90;;;;;;5018920;28;20045;-73
2024/01/06 01:24:12;;;;;;;26.38;21.20;;;3.50;99.90;;;;;;5014474;28;20053;-73
2024/01/06 01:26:37;;;;;;;27.05;21.50;;;3.50;99.90;;;;;;5016679;28;21006;-73
2024/01/06 01:29:03;;;;;;;27.58;21.55;;;3.50;99.90;;;;;;5016413;28;20431;-73
2024/01/06 01:31:29;;;;;;;26.90;21.10;;;3.50;99.90;;;;;;5014741;28;20480;-73
2024/01/06 01:33:54;;;;;;;24.33;20.80;;;3.50;99.90;;;;;;5010527;28;20041;-73
2024/01/06 01:36:20;;;;;;;26.70;20.55;;;3.50;99.90;;;;;;5018102;28;20037;-73
2024/01/06 01:38:45;;;;;;;24.33;20.80;;;3.50;99.90;;;;;;5014187;28;20504;-73
2024/01/06 01:41:11;;;;;;;27.45;21.23;;;3.50;99.90;;;;;;5016423;28;20054;-73
2024/01/06 01:43:37;;;;;;;23.65;19.30;;;3.50;99.90;;;;;;5015911;28;20164;-73
2024/01/06 01:46:04;;;;;;;21.42;18.58;;;3.50;99.90;;;;;;5016280;28;20504;-73
2024/01/06 01:48:30;;;;;;;22.00;17.35;;;3.40;99.90;;;;;;5015990;28;20045;-73
2024/01/06 01:50:56;;;;;;;23.25;18.35;;;3.40;99.90;;;;;;5017810;28;20211;-73
2024/01/06 01:53:24;;;;;;;23.10;18.48;;;3.40;99.90;;;;;;5012363;28;20808;-73
2024/01/06 01:55:50;;;;;;;22.80;19.40;;;3.40;99.90;;;;;;5018585;28;20052;-73
2024/01/06 01:58:19;;;;;;;22.17;18.00;;;3.30;99.90;;;;;;5015469;28;20165;-73
2024/01/06 02:00:44;;;;;;;21.40;17.70;;;3.30;99.90;;;;;;5018262;28;20077;-73
2024/01/06 02:03:12;;;;;;;23.33;18.88;;;3.30;99.90;;;;;;5018274;28;20587;-74
2024/01/06 02:05:38;;;;;;;24.75;19.17;;;3.30;99.90;;;;;;5018021;28;20036;-73
2024/01/06 02:08:04;;;;;;;25.35;19.30;;;3.20;99.90;;;;;;5018047;28;20042;-73
2024/01/06 02:10:30;;;;;;;25.05;19.52;;;3.20;99.90;;;;;;5015325;28;20128;-73
2024/01/06 02:12:55;;;;;;;25.00;19.83;;;3.20;99.90;;;;;;5014848;28;20226;-73
2024/01/06 02:15:21;;;;;;;25.20;19.10;;;3.20;99.90;;;;;;5017149;28;20083;-73
2024/01/06 02:17:47;;;;;;;26.02;19.77;;;3.20;99.90;;;;;;5019557;28;20053;-73
2024/01/06 02:20:16;;;;;;;23.48;19.02;;;3.20;99.90;;;;;;4998905;28;20259;-73
2024/01/06 02:22:41;;;;;;;25.58;19.50;;;3.20;99.90;;;;;;5015556;28;20219;-73
2024/01/06 02:25:12;;;;;;;23.45;19.83;;;3.20;99.90;;;;;;5028190;28;20041;-73
2024/01/06 02:27:39;;;;;;;27.27;22.42;;;3.10;99.90;;;;;;5019517;28;20099;-73
2024/01/06 02:30:06;;;;;;;27.58;20.83;;;3.10;99.90;;;;;;5014907;28;20045;-73
2024/01/06 02:32:31;;;;;;;26.98;20.25;;;3.10;99.90;;;;;;5016251;28;20053;-73
2024/01/06 02:34:57;;;;;;;25.70;21.20;;;3.00;99.90;;;;;;5015391;28;20030;-73
2024/01/06 02:37:23;;;;;;;25.80;20.15;;;3.00;99.90;;;;;;5018878;28;20080;-73
2024/01/06 02:39:48;;;;;;;28.27;20.27;;;3.00;99.90;;;;;;5013480;28;20049;-73
2024/01/06 02:42:14;;;;;;;28.10;21.05;;;3.00;99.90;;;;;;5017022;28;20052;-73
2024/01/06 02:44:40;;;;;;;24.88;19.63;;;3.00;99.90;;;;;;5014324;28;20053;-73
2024/01/06 02:47:05;;;;;;;24.00;19.05;;;3.00;99.90;;;;;;5017296;28;20041;-73
2024/01/06 02:49:31;;;;;;;23.70;18.60;;;2.90;99.90;;;;;;5013226;28;20076;-73
2024/01/06 02:51:56;;;;;;;26.58;18.70;;;2.90;99.90;;;;;;5019040;28;20075;-73
2024/01/06 02:54:22;;;;;;;26.45;18.92;;;2.90;99.90;;;;;;5014132;28;20536;-73
2024/01/06 02:56:48;;;;;;;21.58;17.42;;;2.90;99.90;;;;;;5031685;28;20045;-73
2024/01/06 02:59:13;;;;;;;21.25;17.33;;;2.90;99.90;;;;;;5015775;28;20077;-73
2024/01/06 03:01:39;;;;;;;21.90;17.67;;;2.90;99.90;;;;;;5016785;28;20048;-73
2024/01/06 03:04:05;;;;;;;23.60;16.95;;;2.90;99.90;;;;;;5012441;28;20049;-73
2024/01/06 03:06:30;;;;;;;19.20;16.38;;;2.90;99.90;;;;;;5018732;28;20080;-73
2024/01/06 03:08:56;;;;;;;22.27;16.92;;;2.90;99.90;;;;;;5014539;28;20073;-73
2024/01/06 03:11:22;;;;;;;21.73;17.30;;;2.80;99.90;;;;;;5015396;28;20065;-73
2024/01/06 03:13:48;;;;;;;21.70;17.80;;;2.90;99.90;;;;;;5013332;28;20068;-73
2024/01/06 03:16:13;;;;;;;24.15;18.83;;;2.90;99.90;;;;;;5019129;28;20069;-73
2024/01/06 03:18:39;;;;;;;23.63;18.73;;;2.90;99.90;;;;;;5017527;28;20115;-73
2024/01/06 03:21:04;;;;;;;26.23;19.80;;;2.90;99.90;;;;;;5016839;28;20040;-73
2024/01/06 03:23:30;;;;;;;26.52;20.25;;;2.90;99.90;;;;;;5011925;28;21032;-73
2024/01/06 03:25:56;;;;;;;24.02;18.52;;;2.90;99.90;;;;;;5015718;28;20049;-73
2024/01/06 03:28:21;;;;;;;29.55;19.25;;;2.90;99.90;;;;;;5013213;28;21044;-73
2024/01/06 03:30:47;;;;;;;26.27;19.48;;;2.80;99.90;;;;;;5016077;28;20179;-73
2024/01/06 03:33:13;;;;;;;24.70;19.65;;;2.80;99.90;;;;;;5016338;28;20033;-73
2024/01/06 03:36:08;;;;;;;29.77;21.20;;;2.80;99.90;;;;;;5041222;22;20137;-73
2024/01/06 03:38:42;;;;;;;27.75;20.63;;;2.80;99.90;;;;;;4990166;28;20804;-73
2024/01/06 03:41:08;;;;;;;29.73;21.55;;;2.80;99.90;;;;;;4996305;28;21051;-73
2024/01/06 03:43:33;;;;;;;30.95;22.10;;;2.70;99.90;;;;;;4963358;28;20053;-73
2024/01/06 03:46:00;;;;;;;34.85;22.40;;;2.70;99.90;;;;;;4996259;28;20096;-73
2024/01/06 03:48:26;;;;;;;35.65;23.42;;;2.70;99.90;;;;;;4994090;28;20096;-73
2024/01/06 03:50:51;;;;;;;38.38;23.88;;;2.70;99.90;;;;;;4997357;28;20460;-73
2024/01/06 03:53:17;;;;;;;34.38;24.65;;;2.70;99.90;;;;;;4995411;28;20407;-73
2024/01/06 03:55:43;;;;;;;33.97;23.92;;;2.70;99.90;;;;;;4996391;28;20670;-73
2024/01/06 03:58:08;;;;;;;33.30;23.20;;;2.70;99.90;;;;;;4980900;28;20193;-73
2024/01/06 04:00:34;;;;;;;35.53;22.50;;;2.70;99.90;;;;;;4963958;28;20042;-73
2024/01/06 04:03:00;;;;;;;37.13;23.85;;;2.70;99.90;;;;;;4995220;28;20045;-73
2024/01/06 04:05:25;;;;;;;34.40;22.63;;;2.70;99.90;;;;;;4994155;28;20049;-73
2024/01/06 04:07:51;;;;;;;25.13;18.50;;;2.70;99.90;;;;;;4996844;28;20042;-73
2024/01/06 04:10:17;;;;;;;28.48;20.27;;;2.70;99.90;;;;;;4994598;28;20117;-73
2024/01/06 04:12:42;;;;;;;35.30;22.13;;;2.70;99.90;;;;;;4995608;28;20133;-73
2024/01/06 04:15:08;;;;;;;32.47;21.85;;;2.60;99.90;;;;;;4960397;28;20053;-73
2024/01/06 04:17:34;;;;;;;33.25;22.08;;;2.60;99.90;;;;;;4997126;28;20045;-73
2024/01/06 04:19:59;;;;;;;33.63;21.65;;;2.60;99.90;;;;;;4995671;28;20046;-73
2024/01/06 04:22:25;;;;;;;31.80;21.95;;;2.60;99.90;;;;;;4997022;28;20454;-73
2024/01/06 04:24:51;;;;;;;34.88;23.00;;;2.70;99.90;;;;;;4978008;28;20061;-73
2024/01/06 04:27:18;;;;;;;34.90;22.55;;;2.70;99.90;;;;;;4980778;28;20504;-73
2024/01/06 04:29:43;;;;;;;32.00;22.35;;;2.60;99.90;;;;;;4978418;28;20693;-73
2024/01/06 04:32:09;;;;;;;38.78;22.70;;;2.70;99.90;;;;;;4979036;28;20046;-73
2024/01/06 04:34:34;;;;;;;34.47;23.17;;;2.70;99.90;;;;;;4991279;28;20129;-73
2024/01/06 04:37:00;;;;;;;35.80;24.08;;;2.70;99.90;;;;;;4978518;28;20065;-73
2024/01/06 04:39:26;;;;;;;32.58;22.92;;;2.60;99.90;;;;;;4978950;28;20053;-74
2024/01/06 04:41:51;;;;;;;39.67;24.20;;;2.60;99.90;;;;;;4982284;28;20482;-74
2024/01/06 04:44:20;;;;;;;38.05;24.25;;;2.60;99.90;;;;;;4980145;28;20104;-74
2024/01/06 04:46:46;;;;;;;31.65;22.35;;;2.70;99.90;;;;;;4997285;28;20037;-74
2024/01/06 04:49:12;;;;;;;40.22;22.48;;;2.70;99.90;;;;;;4994915;28;20046;-74
2024/01/06 04:51:37;;;;;;;30.38;19.60;;;2.70;99.90;;;;;;4980851;28;20062;-74
2024/01/06 04:54:03;;;;;;;32.72;20.55;;;2.60;99.90;;;;;;4994465;28;20133;-73
2024/01/06 04:56:29;;;;;;;35.20;20.38;;;2.60;99.90;;;;;;4977372;28;20052;-74
2024/01/06 04:58:54;;;;;;;27.40;19.60;;;2.60;99.90;;;;;;4992791;28;20843;-73
2024/01/06 05:01:21;;;;;;;28.73;18.17;;;2.60;99.90;;;;;;4996886;28;21097;-74
2024/01/06 05:03:46;;;;;;;26.38;19.45;;;2.60;99.90;;;;;;4992615;28;20448;-73
2024/01/06 05:06:12;;;;;;;31.42;18.95;;;2.60;99.90;;;;;;4996684;28;20041;-74
2024/01/06 05:08:44;;;;;;;27.95;20.23;;;2.60;99.90;;;;;;4976512;28;20069;-73
2024/01/06 05:11:10;;;;;;;30.38;19.27;;;2.60;99.90;;;;;;4979864;28;20552;-74
2024/01/06 05:13:36;;;;;;;31.13;18.50;;;2.50;99.90;;;;;;4977118;28;20060;-73
2024/01/06 05:16:02;;;;;;;33.58;18.73;;;2.60;99.90;;;;;;4995178;28;20041;-73
2024/01/06 05:18:27;;;;;;;28.55;19.40;;;2.60;99.90;;;;;;4982053;28;20724;-73
2024/01/06 05:20:54;;;;;;;27.90;19.02;;;2.50;99.90;;;;;;4999702;28;20501;-74
2024/01/06 05:23:19;;;;;;;31.15;18.92;;;2.50;99.90;;;;;;4979522;28;20056;-73
2024/01/06 05:25:45;;;;;;;30.80;19.55;;;2.50;99.90;;;;;;4999755;28;20378;-74
2024/01/06 05:28:11;;;;;;;30.85;19.65;;;2.50;99.90;;;;;;4998236;28;20069;-74
2024/01/06 05:30:36;;;;;;;29.85;18.88;;;2.50;99.90;;;;;;4981097;28;20173;-74
2024/01/06 05:33:03;;;;;;;29.73;19.33;;;2.50;99.90;;;;;;4998556;28;20038;-73
2024/01/06 05:35:29;;;;;;;25.60;17.67;;;2.50;99.90;;;;;;4994203;28;20161;-74
2024/01/06 05:37:55;;;;;;;29.10;19.23;;;2.40;99.90;;;;;;4982431;28;20603;-74
2024/01/06 05:40:21;;;;;;;26.83;18.98;;;2.40;99.90;;;;;;4997297;28;20046;-74
2024/01/06 05:42:46;;;;;;;28.63;19.05;;;2.50;99.90;;;;;;4997927;28;20408;-73
2024/01/06 05:45:13;;;;;;;28.73;19.98;;;2.40;99.90;;;;;;4979404;28;20100;-74
2024/01/06 05:47:39;;;;;;;29.13;18.77;;;2.40;99.90;;;;;;4983812;28;20049;-74
2024/01/06 05:50:05;;;;;;;24.15;17.50;;;2.40;99.90;;;;;;4981090;28;20049;-74
2024/01/06 05:52:30;;;;;;;26.08;18.10;;;2.40;99.90;;;;;;5000621;28;20045;-74
2024/01/06 05:54:58;;;;;;;27.58;18.02;;;2.40;99.90;;;;;;4980320;28;20050;-74
2024/01/06 05:57:23;;;;;;;28.88;19.02;;;2.40;99.90;;;;;;5000911;28;20069;-74
2024/01/06 05:59:49;;;;;;;33.05;19.27;;;2.40;99.90;;;;;;4981591;28;20152;-75
2024/01/06 06:02:15;;;;;;;31.50;19.30;;;2.40;99.90;;;;;;4998049;28;20049;-74
2024/01/06 06:04:40;;;;;;;31.35;18.83;;;2.40;99.90;;;;;;4995108;28;20560;-74
2024/01/06 06:07:06;;;;;;;30.00;19.13;;;2.40;99.90;;;;;;5000131;28;20125;-75
2024/01/06 06:09:34;;;;;;;26.52;18.58;;;2.40;99.90;;;;;;4995173;28;20044;-74
2024/01/06 06:12:00;;;;;;;29.20;19.10;;;2.40;99.90;;;;;;5000279;28;20096;-74
2024/01/06 06:14:25;;;;;;;33.40;22.63;;;2.40;99.90;;;;;;4997347;28;20046;-73
2024/01/06 06:16:51;;;;;;;37.70;25.52;;;2.40;99.90;;;;;;4999662;28;20047;-74
2024/01/06 06:19:18;;;;;;;28.00;20.88;;;2.30;99.90;;;;;;4977906;28;20072;-74
2024/01/06 06:21:44;;;;;;;31.13;23.63;;;2.40;99.90;;;;;;4983559;28;20075;-73
2024/01/06 06:24:09;;;;;;;31.30;21.63;;;2.30;99.90;;;;;;4981773;28;20038;-73
2024/01/06 06:26:35;;;;;;;29.50;21.20;;;2.30;99.90;;;;;;4981146;28;20050;-73
2024/01/06 06:29:01;;;;;;;28.33;19.45;;;2.40;99.90;;;;;;4979030;28;20046;-74
2024/01/06 06:31:27;;;;;;;28.63;19.77;;;2.40;99.90;;;;;;4983909;28;20041;-74
2024/01/06 06:33:52;;;;;;;34.53;25.83;;;2.40;99.90;;;;;;4995243;28;20045;-74
2024/01/06 06:36:18;;;;;;;26.80;19.80;;;2.40;99.90;;;;;;4993743;28;20041;-74
2024/01/06 06:38:43;;;;;;;52.67;46.97;;;2.40;99.90;;;;;;4979873;28;20137;-74
2024/01/06 06:41:09;;;;;;;25.50;18.58;;;2.30;99.90;;;;;;4994147;28;20061;-74
2024/01/06 06:43:35;;;;;;;24.88;19.25;;;2.30;99.90;;;;;;4978546;28;20054;-74
2024/01/06 06:46:00;;;;;;;27.00;18.92;;;2.40;99.90;;;;;;4997161;28;20042;-74
2024/01/06 06:48:26;;;;;;;23.90;18.67;;;2.40;99.90;;;;;;4995393;28;20141;-74
2024/01/06 06:50:52;;;;;;;25.55;18.58;;;2.30;99.90;;;;;;4994660;28;20041;-74
2024/01/06 06:53:18;;;;;;;30.10;21.65;;;2.30;99.90;;;;;;4982410;28;20045;-74
2024/01/06 06:55:43;;;;;;;24.33;17.52;;;2.30;99.90;;;;;;4997136;28;20096;-74
2024/01/06 06:58:09;;;;;;;30.02;20.70;;;2.30;99.90;;;;;;4979346;28;20108;-74
2024/01/06 07:00:35;;;;;;;25.33;18.38;;;2.30;99.90;;;;;;4994701;28;20951;-74
2024/01/06 07:03:01;;;;;;;24.77;17.70;;;2.30;99.90;;;;;;4997674;28;20057;-74
2024/01/06 07:05:26;;;;;;;29.23;18.45;;;2.30;99.90;;;;;;4995716;28;20056;-74
2024/01/06 07:07:52;;;;;;;22.70;17.77;;;2.20;99.90;;;;;;4998464;28;20050;-74
2024/01/06 07:10:18;;;;;;;34.42;20.10;;;2.20;99.90;;;;;;4977448;28;20108;-73
2024/01/06 07:12:43;;;;;;;30.63;20.70;;;2.20;99.90;;;;;;4995779;28;20412;-74
2024/01/06 07:15:10;;;;;;;32.10;26.58;;;2.20;99.90;;;;;;4994043;28;20037;-74
2024/01/06 07:17:36;;;;;;;29.67;20.02;;;2.20;99.90;;;;;;4998653;28;20064;-74
2024/01/06 07:20:02;;;;;;;27.52;19.48;;;2.30;99.90;;;;;;4996140;28;20045;-74
2024/01/06 07:22:28;;;;;;;22.55;18.00;;;2.20;99.90;;;;;;4981281;28;20448;-74
2024/01/06 07:24:54;;;;;;;26.65;18.42;;;2.30;99.90;;;;;;4978433;28;20049;-74
2024/01/06 07:27:19;;;;;;;23.63;16.75;;;2.20;99.90;;;;;;4996807;28;20060;-74
2024/01/06 07:29:45;;;;;;;23.85;18.77;;;2.30;99.90;;;;;;4975280;28;20104;-73
2024/01/06 07:32:11;;;;;;;22.95;18.10;;;2.20;99.90;;;;;;4975544;28;20099;-74
2024/01/06 07:34:36;;;;;;;25.42;18.38;;;2.20;99.90;;;;;;4993350;28;22104;-73
2024/01/06 07:37:02;;;;;;;22.65;17.85;;;2.20;99.90;;;;;;4982203;28;20448;-74
2024/01/06 07:39:28;;;;;;;25.67;18.30;;;2.20;99.90;;;;;;4997961;28;20109;-74
2024/01/06 07:41:53;;;;;;;25.75;18.65;;;2.20;99.90;;;;;;4983577;28;20042;-73
2024/01/06 07:44:24;;;;;;;23.80;18.35;;;2.10;99.90;;;;;;4998027;28;20077;-74
2024/01/06 07:46:51;;;;;;;21.95;17.45;;;2.20;99.90;;;;;;5000209;28;20046;-73
2024/01/06 07:49:17;;;;;;;22.98;18.10;;;2.20;99.90;;;;;;4981641;28;20046;-74
2024/01/06 07:51:42;;;;;;;24.30;17.63;;;2.20;99.90;;;;;;4983241;28;20133;-73
2024/01/06 07:54:09;;;;;;;23.05;17.58;;;2.20;99.90;;;;;;4980417;28;20042;-73
2024/01/06 07:56:35;;;;;;;22.33;17.95;;;2.20;99.90;;;;;;5000653;28;20133;-73
2024/01/06 07:59:04;;;;;;;20.67;16.90;;;2.20;99.90;;;;;;4995272;28;20138;-73
2024/01/06 08:01:30;;;;;;;20.42;17.38;;;2.20;99.90;;;;;;4979739;28;20165;-73
2024/01/06 08:03:56;;;;;;;20.98;17.60;;;2.20;99.90;;;;;;4977411;28;20058;-73
2024/01/06 08:06:21;;;;;;;24.27;17.23;;;2.20;99.90;;;;;;4980523;28;20058;-73
2024/01/06 08:08:47;;;;;;;19.65;16.10;;;2.20;99.90;;;;;;4997722;28;20042;-73
2024/01/06 08:11:13;;;;;;;19.10;16.08;;;2.20;99.90;;;;;;4981878;28;20116;-73
2024/01/06 08:13:38;;;;;;;19.05;16.33;;;2.20;99.90;;;;;;4994862;28;20045;-73
2024/01/06 08:16:05;;;;;;;19.10;16.08;;;2.20;99.90;;;;;;4979464;28;20049;-73
2024/01/06 08:18:31;;;;;;;18.63;15.50;;;2.20;99.90;;;;;;4978303;28;20874;-74
2024/01/06 08:20:56;;;;;;;19.13;15.73;;;2.20;99.90;;;;;;4983167;28;20049;-73
2024/01/06 08:23:22;;;;;;;18.67;15.25;;;2.20;99.90;;;;;;4975896;28;20080;-74
2024/01/06 08:25:48;;;;;;;18.70;15.63;;;2.20;99.90;;;;;;4966028;28;20097;-73
2024/01/06 08:28:18;;;;;;;16.63;14.20;;;2.20;99.90;;;;;;4995711;28;20046;-74
2024/01/06 08:30:44;;;;;;;16.55;13.52;;;2.20;99.90;;;;;;4979215;28;20049;-74
2024/01/06 08:33:10;;;;;;;16.52;13.50;;;2.20;99.90;;;;;;4981613;28;20030;-74
2024/01/06 08:35:40;;;;;;;16.70;13.88;;;2.20;99.90;;;;;;4997953;28;20046;-74
2024/01/06 08:38:06;;;;;;;17.75;14.60;;;2.20;99.90;;;;;;4983179;28;20127;-73
2024/01/06 08:40:33;;;;;;;19.45;14.88;;;2.20;99.90;;;;;;4997114;28;20038;-74
2024/01/06 08:42:58;;;;;;;18.52;15.20;;;2.20;99.90;;;;;;4999609;28;20181;-74
2024/01/06 08:45:24;;;;;;;23.17;16.75;;;2.20;99.90;;;;;;4963827;28;20144;-74
2024/01/06 08:47:49;;;;;;;20.30;15.05;;;2.20;99.90;;;;;;5001672;28;20049;-74
2024/01/06 08:50:15;;;;;;;16.92;14.15;;;2.20;99.90;;;;;;4984714;28;20046;-74
2024/01/06 08:52:41;;;;;;;19.80;15.65;;;2.20;99.90;;;;;;5004296;28;20043;-73
2024/01/06 08:55:07;;;;;;;20.30;15.82;;;2.20;99.90;;;;;;4985238;28;20050;-74
2024/01/06 08:57:32;;;;;;;20.30;15.50;;;2.20;99.90;;;;;;5003179;28;20084;-74
2024/01/06 08:59:58;;;;;;;18.67;15.35;;;2.20;99.90;;;;;;4999236;28;20145;-73
2024/01/06 09:02:24;;;;;;;17.02;14.60;;;2.30;99.90;;;;;;5003845;28;20049;-74
2024/01/06 09:04:50;;;;;;;19.10;14.80;;;2.30;99.90;;;;;;4981357;28;20045;-73
2024/01/06 09:07:17;;;;;;;17.52;14.93;;;2.20;99.90;;;;;;4983293;28;20506;-74
2024/01/06 09:09:43;;;;;;;18.50;15.05;;;2.30;99.90;;;;;;4998350;28;20165;-72
2024/01/06 09:12:09;;;;;;;16.88;14.77;;;2.30;99.90;;;;;;4984846;28;20456;-74
2024/01/06 09:14:35;;;;;;;18.00;14.90;;;2.30;99.90;;;;;;4982773;28;20065;-73
2024/01/06 09:17:00;;;;;;;25.42;20.45;;;2.30;99.90;;;;;;5001738;28;20054;-73
2024/01/06 09:19:28;;;;;;;30.27;21.23;;;2.40;99.90;;;;;;4984716;28;20547;-73
2024/01/06 09:21:54;;;;;;;281.95;126.05;;;2.30;99.90;;;;;;4985691;28;20054;-74
2024/01/06 09:24:20;;;;;;;24.63;18.33;;;2.30;99.90;;;;;;5001862;28;20049;-74
2024/01/06 09:26:46;;;;;;;21.90;17.77;;;2.30;99.90;;;;;;5003859;28;20045;-74
2024/01/06 09:29:12;;;;;;;16.90;14.70;;;2.30;99.90;;;;;;5001235;28;20547;-74
2024/01/06 09:31:38;;;;;;;17.05;14.57;;;2.30;99.90;;;;;;4984510;28;20472;-73
2024/01/06 09:34:03;;;;;;;17.42;14.93;;;2.30;99.90;;;;;;5001843;28;20046;-74
2024/01/06 09:36:31;;;;;;;17.40;14.20;;;2.30;99.90;;;;;;5004226;28;20097;-74
2024/01/06 09:38:56;;;;;;;17.83;14.75;;;2.30;99.90;;;;;;5000180;28;20050;-73
2024/01/06 09:41:23;;;;;;;16.20;14.18;;;2.30;99.90;;;;;;4984856;28;20074;-74
2024/01/06 09:43:49;;;;;;;18.35;14.70;;;2.40;99.90;;;;;;4983682;28;20045;-73
2024/01/06 09:46:26;;;;;;;15.80;14.07;;;2.30;99.90;;;;;;5002059;28;20468;-73
2024/01/06 09:48:53;;;;;;;15.40;13.73;;;2.40;99.90;;;;;;4977269;28;20140;-74
2024/01/06 09:51:19;;;;;;;15.57;13.35;;;2.40;99.90;;;;;;4968827;28;20042;-74
2024/01/06 09:53:57;;;;;;;15.50;12.93;;;2.40;99.90;;;;;;4997586;28;20042;-74
2024/01/06 09:56:25;;;;;;;14.65;12.75;;;2.40;99.90;;;;;;4982453;28;20050;-74
2024/01/06 09:58:51;;;;;;;14.68;13.00;;;2.40;99.90;;;;;;4982877;28;20140;-74
2024/01/06 10:01:20;;;;;;;14.32;12.82;;;2.40;99.90;;;;;;4984764;28;20141;-74
2024/01/06 10:03:46;;;;;;;14.43;12.93;;;2.40;99.90;;;;;;4987085;28;20082;-74
2024/01/06 10:06:14;;;;;;;14.52;13.02;;;2.40;99.90;;;;;;4989878;28;20058;-74
2024/01/06 10:08:43;;;;;;;15.98;13.02;;;2.40;99.90;;;;;;4998470;28;20046;-74
2024/01/06 10:11:09;;;;;;;13.90;12.45;;;2.50;99.90;;;;;;5003647;28;20045;-74
2024/01/06 10:13:35;;;;;;;13.13;11.63;;;2.50;99.90;;;;;;4984194;28;20042;-74
2024/01/06 10:16:01;;;;;;;12.63;11.20;;;2.50;99.90;;;;;;4997237;28;20050;-74
2024/01/06 10:18:29;;;;;;;14.48;12.48;;;2.50;99.90;;;;;;5000385;28;20049;-73
2024/01/06 10:20:55;;;;;;;13.88;12.48;;;2.50;99.90;;;;;;5001544;28;20038;-74
2024/01/06 10:23:26;;;;;;;13.82;12.02;;;2.50;99.90;;;;;;4998079;28;20056;-75
2024/01/06 10:25:56;;;;;;;13.70;11.95;;;2.50;99.90;;;;;;4999699;28;20046;-74
2024/01/06 10:28:24;;;;;;;13.52;12.00;;;2.50;99.90;;;;;;4999634;28;20053;-74
2024/01/06 10:30:54;;;;;;;13.60;12.20;;;2.50;99.90;;;;;;4984674;28;20126;-74
2024/01/06 10:33:22;;;;;;;13.68;12.18;;;2.60;99.90;;;;;;4985022;28;20043;-74
2024/01/06 10:35:48;;;;;;;13.95;12.45;;;2.60;99.90;;;;;;5001865;28;20560;-74
2024/01/06 10:38:17;;;;;;;13.90;12.18;;;2.60;99.90;;;;;;4984564;28;20129;-75
2024/01/06 10:41:07;;;;;;;15.07;11.90;;;2.60;99.90;;;;;;5001297;28;20100;-74
2024/01/06 10:43:40;;;;;;;13.98;12.25;;;2.60;99.90;;;;;;4982031;28;20091;-73
2024/01/06 10:46:10;;;;;;;14.40;12.20;;;2.60;99.90;;;;;;4967403;28;20073;-74
2024/01/06 10:48:38;;;;;;;12.73;11.35;;;2.60;99.90;;;;;;4982962;28;20042;-73
2024/01/06 10:51:07;;;;;;;13.05;11.65;;;2.60;99.90;;;;;;4984160;28;20072;-74
2024/01/06 10:53:35;;;;;;;13.35;11.95;;;2.60;99.90;;;;;;4999993;28;20052;-74
2024/01/06 10:56:01;;;;;;;15.40;12.43;;;2.60;99.90;;;;;;4998718;28;20057;-74
2024/01/06 10:58:29;;;;;;;13.48;11.82;;;2.60;99.90;;;;;;4997752;28;20046;-74
2024/01/06 11:00:57;;;;;;;13.27;11.88;;;2.60;99.90;;;;;;4982827;28;20057;-74
2024/01/06 11:03:23;;;;;;;13.45;12.05;;;2.60;99.90;;;;;;4998176;28;20037;-74
2024/01/06 11:05:50;;;;;;;16.15;13.02;;;2.60;99.90;;;;;;5001242;28;20039;-74
2024/01/06 11:08:17;;;;;;;15.32;13.32;;;2.60;99.90;;;;;;4982905;28;20046;-74
2024/01/06 11:10:44;;;;;;;17.27;14.10;;;2.60;99.90;;;;;;5001329;28;20045;-74
2024/01/06 11:13:22;;;;;;;15.65;13.63;;;2.70;99.90;;;;;;4984365;28;20053;-74
2024/01/06 11:15:50;;;;;;;20.05;14.52;;;2.60;99.90;;;;;;4989295;28;20049;-74
2024/01/06 11:18:38;;;;;;;16.20;13.80;;;2.60;99.90;;;;;;4998208;28;20508;-74
2024/01/06 11:21:27;;;;;;;17.52;13.80;;;2.60;99.90;;;;;;5001029;28;20493;-74
2024/01/06 11:24:11;;;;;;;15.40;12.90;;;2.70;99.90;;;;;;4983280;28;20923;-74
2024/01/06 11:26:44;;;;;;;15.02;12.80;;;2.70;99.90;;;;;;4998512;28;20133;-74
2024/01/06 11:29:10;;;;;;;14.55;12.82;;;2.70;99.90;;;;;;4981639;28;20065;-74
2024/01/06 11:31:37;;;;;;;15.50;12.07;;;2.70;99.90;;;;;;5001920;28;20042;-74
2024/01/06 11:34:21;;;;;;;13.93;12.32;;;2.70;99.90;;;;;;4983091;28;20042;-74
2024/01/06 11:36:50;;;;;;;13.95;12.45;;;2.60;99.90;;;;;;5000560;28;20039;-74
2024/01/06 11:39:40;;;;;;;15.80;13.27;;;2.60;99.90;;;;;;4979714;28;20057;-74
2024/01/06 11:42:06;;;;;;;16.13;13.50;;;2.60;99.90;;;;;;4981038;28;20038;-74
2024/01/06 11:44:47;;;;;;;16.40;13.55;;;2.60;99.90;;;;;;4998491;28;20995;-74
2024/01/06 11:47:14;;;;;;;15.23;12.77;;;2.70;99.90;;;;;;4994552;28;20128;-74
2024/01/06 11:49:47;;;;;;;16.33;13.20;;;2.70;99.90;;;;;;4997802;28;20045;-75
2024/01/06 11:52:14;;;;;;;15.02;13.25;;;2.60;99.90;;;;;;4984830;28;20433;-74
2024/01/06 11:54:41;;;;;;;15.40;13.50;;;2.70;99.90;;;;;;4999109;28;20391;-74
2024/01/06 11:57:07;;;;;;;16.73;13.65;;;2.60;99.90;;;;;;4999674;28;20045;-74
2024/01/06 11:59:32;;;;;;;16.77;13.82;;;2.60;99.90;;;;;;4982388;28;20107;-74
2024/01/06 12:01:58;;;;;;;15.70;13.77;;;2.60;99.90;;;;;;4982722;28;20121;-74
2024/01/06 12:04:26;;;;;;;17.02;14.40;;;2.60;99.90;;;;;;4994568;28;20050;-74
2024/01/06 12:06:52;;;;;;;15.65;13.93;;;2.60;99.90;;;;;;4976922;28;20487;-74
2024/01/06 12:09:19;;;;;;;17.25;14.27;;;2.60;99.90;;;;;;4993233;28;20078;-74
2024/01/06 12:11:46;;;;;;;17.05;14.60;;;2.50;99.90;;;;;;4979782;28;20133;-74
2024/01/06 12:14:12;;;;;;;16.85;14.40;;;2.50;99.90;;;;;;4976328;28;20049;-74
2024/01/06 12:16:38;;;;;;;16.50;14.52;;;2.50;99.90;;;;;;4974857;28;20046;-74
2024/01/06 12:19:04;;;;;;;18.25;15.00;;;2.50;99.90;;;;;;4977454;28;20175;-74
2024/01/06 12:21:31;;;;;;;16.67;14.23;;;2.50;99.90;;;;;;4975516;28;20042;-74
2024/01/06 12:24:18;;;;;;;16.95;14.50;;;2.50;99.90;;;;;;4984142;28;20139;-75
2024/01/06 12:26:45;;;;;;;17.17;14.65;;;2.50;99.90;;;;;;4967068;28;20069;-75
2024/01/06 12:29:11;;;;;;;16.70;14.60;;;2.50;99.90;;;;;;4984200;28;21948;-73
2024/01/06 12:31:38;;;;;;;18.63;15.25;;;2.50;99.90;;;;;;4995171;28;20096;-74
2024/01/06 12:34:04;;;;;;;18.10;13.75;;;2.50;99.90;;;;;;4998160;28;20048;-74